Time;durP1;ratioP1;P1;durP2;ratioP2;P2;SDS_P1;SDS_P2;PMS_P1;PMS_P2;Temp;Humidity;BMP_temperature;BMP_pressure;BME280_temperature;BME280_humidity;BME280_pressure;Samples;Min_cycle;Max_cycle;Signal;HPM_P1;HPM_P2
2022/08/12 00:43:17;;;;;;;10.60;3.33;;;;;;;21.31;45.55;101725.44;5222518;28;20038;-77
2022/08/12 00:48:39;;;;;;;7.70;2.80;;;;;;;21.17;45.18;101719.91;5222040;28;20038;-76
2022/08/12 00:51:10;;;;;;;8.23;3.53;;;;;;;21.04;45.74;101719.56;5221896;28;20176;-75
2022/08/12 00:53:42;;;;;;;7.97;3.70;;;;;;;21.04;45.84;101724.84;5221872;28;20077;-76
2022/08/12 00:56:14;;;;;;;7.40;3.40;;;;;;;21.07;46.03;101719.41;5221690;28;20036;-75
2022/08/12 00:58:49;;;;;;;6.40;3.03;;;;;;;21.04;46.47;101716.91;5205012;28;20422;-75
2022/08/12 01:01:21;;;;;;;6.70;3.22;;;;;;;20.86;46.90;101715.84;5221632;28;20060;-75
2022/08/12 01:12:26;;;;;;;7.55;3.30;;;;;;;20.74;46.62;101716.38;5221806;28;20544;-76
2022/08/12 01:15:00;;;;;;;4.00;2.85;;;;;;;20.68;47.39;101713.97;5221496;28;20034;-76
2022/08/12 01:17:31;;;;;;;4.28;3.03;;;;;;;20.70;46.85;101720.91;5221546;28;20042;-76
2022/08/12 01:20:06;;;;;;;4.47;2.93;;;;;;;20.74;47.03;101717.22;5220921;28;20034;-76
2022/08/12 01:22:57;;;;;;;6.53;3.13;;;;;;;20.75;46.85;101715.44;5221804;28;20113;-75
2022/08/12 01:25:34;;;;;;;7.72;3.50;;;;;;;20.49;47.86;101714.66;5221778;28;20049;-75
2022/08/12 01:28:11;;;;;;;8.20;3.13;;;;;;;20.60;47.43;101714.25;5221192;28;20030;-76
2022/08/12 01:30:43;;;;;;;8.18;3.35;;;;;;;20.70;47.62;101720.91;5221794;28;20080;-75
2022/08/12 01:33:17;;;;;;;5.78;3.22;;;;;;;20.60;47.77;101722.19;5221022;28;20038;-75
2022/08/12 01:35:56;;;;;;;5.35;3.25;;;;;;;20.56;47.33;101718.81;5202868;28;20080;-76
2022/08/12 01:38:32;;;;;;;9.20;3.17;;;;;;;20.53;47.73;101718.91;5221362;28;20065;-76
2022/08/12 01:41:10;;;;;;;5.18;3.30;;;;;;;20.51;48.39;101715.47;5220095;28;21812;-75
2022/08/12 01:43:43;;;;;;;5.72;2.80;;;;;;;20.56;48.35;101717.94;5220869;28;20116;-76
2022/08/12 01:46:33;;;;;;;9.40;3.28;;;;;;;20.58;48.64;101721.38;5220453;28;20085;-75
2022/08/12 01:49:52;;;;;;;7.95;3.17;;;;;;;20.52;47.98;101724.28;5220841;28;20037;-76
2022/08/12 01:52:52;;;;;;;6.40;2.75;;;;;;;20.53;48.19;101724.22;5184289;28;20482;-75
2022/08/12 01:55:31;;;;;;;7.00;3.50;;;;;;;20.37;49.03;101723.09;5220818;28;20026;-75
2022/08/12 01:58:29;;;;;;;8.55;3.40;;;;;;;20.28;48.54;101721.66;5220954;28;20057;-75
2022/08/12 02:01:06;;;;;;;8.25;3.72;;;;;;;20.08;49.03;101705.69;5220999;28;20037;-76
2022/08/12 02:13:30;;;;;;;7.05;3.40;;;;;;;19.93;49.63;101707.13;5222587;28;20041;-75
2022/08/12 02:16:12;;;;;;;5.05;3.05;;;;;;;19.89;50.82;101705.53;5221444;28;20033;-76
2022/08/12 02:19:02;;;;;;;8.52;3.30;;;;;;;19.83;50.81;101706.59;5220753;28;20490;-76
2022/08/12 02:21:50;;;;;;;6.35;3.20;;;;;;;19.75;51.02;101716.56;5221730;28;20037;-76
2022/08/12 02:24:25;;;;;;;6.68;3.72;;;;;;;19.68;51.48;101708.84;5220681;28;20029;-76
2022/08/12 02:26:59;;;;;;;4.47;2.58;;;;;;;19.57;52.01;101695.16;5220576;28;20057;-76
2022/08/12 02:29:32;;;;;;;7.47;3.28;;;;;;;19.52;51.12;101697.09;5220481;28;20537;-76
2022/08/12 02:32:04;;;;;;;;;;;;;;;19.93;48.91;101701.81;5220982;28;20104;-78
2022/08/12 02:34:36;;;;;;;7.80;3.37;;;;;;;19.66;52.28;101696.63;5220288;28;19909;-75
2022/08/12 02:37:11;;;;;;;5.43;3.08;;;;;;;19.46;52.41;101692.91;5220339;28;20026;-76
2022/08/12 02:39:47;;;;;;;10.63;4.13;;;;;;;19.56;52.63;101703.13;5220457;28;20079;-76
2022/08/12 02:42:22;;;;;;;6.60;3.65;;;;;;;19.35;51.92;101694.19;5220477;28;20068;-76
2022/08/12 02:44:54;;;;;;;6.80;3.85;;;;;;;19.35;53.18;101695.03;5220254;28;20036;-75
2022/08/12 02:47:32;;;;;;;6.10;3.40;;;;;;;19.26;53.19;101690.94;5202948;28;20367;-75
2022/08/12 02:50:05;;;;;;;7.30;3.60;;;;;;;19.31;52.97;101691.66;5220536;28;20030;-75
2022/08/12 02:52:37;;;;;;;7.18;3.35;;;;;;;19.43;53.44;101689.50;5219831;28;20045;-75
2022/08/12 02:55:22;;;;;;;8.45;3.85;;;;;;;19.44;52.90;101699.16;5219918;28;20117;-79
2022/08/12 02:57:54;;;;;;;5.25;3.30;;;;;;;19.22;53.31;101701.69;5220727;28;20076;-75
2022/08/12 03:00:27;;;;;;;7.80;4.47;;;;;;;19.18;53.30;101692.16;5223823;28;20065;-75
2022/08/12 03:03:05;;;;;;;5.28;3.67;;;;;;;19.08;53.87;101691.59;5224696;28;20038;-75
2022/08/12 03:05:43;;;;;;;6.40;4.25;;;;;;;18.94;54.31;101697.34;5223809;28;20046;-74
2022/08/12 03:08:19;;;;;;;7.15;3.72;;;;;;;18.86;54.35;101694.09;5224214;28;20033;-74
2022/08/12 03:10:54;;;;;;;5.78;3.63;;;;;;;19.07;54.24;101687.22;5223248;28;20044;-75
2022/08/12 03:13:27;;;;;;;8.85;3.67;;;;;;;18.81;54.96;101691.56;5224061;28;20025;-75
2022/08/12 03:15:59;;;;;;;9.55;4.13;;;;;;;18.80;55.72;101692.47;5223590;28;20475;-75
2022/08/12 03:18:32;;;;;;;6.03;3.88;;;;;;;18.94;55.09;101687.63;5206245;28;20076;-75
2022/08/12 03:21:03;;;;;;;6.90;4.15;;;;;;;18.78;55.68;101689.03;5190161;28;20034;-76
2022/08/12 03:23:39;;;;;;;6.67;4.00;;;;;;;18.81;55.72;101683.63;5222891;28;20084;-75
2022/08/12 03:26:12;;;;;;;5.97;3.38;;;;;;;18.72;55.53;101678.66;5223416;28;20431;-75
2022/08/12 03:28:49;;;;;;;;;;;;;;;19.04;52.73;101684.69;5223448;28;20034;-76
2022/08/12 03:31:23;;;;;;;8.13;4.00;;;;;;;18.76;56.32;101682.94;5223338;28;19917;-75
2022/08/12 03:34:11;;;;;;;6.80;3.90;;;;;;;18.67;55.51;101683.22;5223352;28;20490;-75
2022/08/12 03:36:42;;;;;;;5.55;3.72;;;;;;;18.57;56.53;101678.22;5223113;28;20439;-75
2022/08/12 03:42:00;;;;;;;9.07;4.53;;;;;;;18.72;56.14;101676.00;5222745;28;20049;-75
2022/08/12 04:01:59;;;;;;;8.68;5.57;;;;;;;18.04;58.15;101684.25;5222579;28;20116;-74
2022/08/12 04:04:33;;;;;;;9.87;5.10;;;;;;;18.00;58.34;101680.00;5222518;28;20030;-75
2022/08/12 04:07:06;;;;;;;7.07;4.70;;;;;;;18.07;58.29;101695.66;5222405;28;20046;-75
2022/08/12 04:09:43;;;;;;;11.00;5.45;;;;;;;18.10;59.29;101691.13;5221721;28;20330;-75
2022/08/12 04:15:04;;;;;;;12.60;5.28;;;;;;;17.85;59.68;101689.19;5222379;28;20041;-75
2022/08/12 04:17:36;;;;;;;6.43;5.10;;;;;;;17.93;59.88;101693.41;5222583;28;20368;-74
2022/08/12 04:20:11;;;;;;;6.15;5.32;;;;;;;17.91;60.45;101701.34;5222263;28;20073;-74
2022/08/12 04:22:43;;;;;;;10.38;5.72;;;;;;;17.83;59.71;101695.41;5189107;28;20057;-73
2022/08/12 04:25:14;;;;;;;6.50;5.22;;;;;;;17.96;60.47;101688.03;5222294;28;20038;-73
2022/08/12 04:27:49;;;;;;;10.40;5.83;;;;;;;17.75;60.20;101695.63;5222285;28;20451;-73
2022/08/12 04:30:22;;;;;;;12.00;5.65;;;;;;;17.60;61.15;101686.38;5221955;28;20029;-73
2022/08/12 04:32:55;;;;;;;7.20;5.25;;;;;;;17.72;60.24;101690.44;5204281;28;20084;-73
2022/08/12 04:35:27;;;;;;;7.18;5.53;;;;;;;17.62;61.19;101687.19;5221975;28;20374;-74
2022/08/12 04:37:59;;;;;;;7.43;5.22;;;;;;;17.68;61.57;101687.03;5221978;28;20026;-71
2022/08/12 04:40:32;;;;;;;10.30;5.97;;;;;;;17.65;61.90;101689.75;5221821;28;20037;-72
2022/08/12 04:43:05;;;;;;;9.15;5.85;;;;;;;17.60;61.73;101688.16;5222179;28;20092;-72
2022/08/12 04:45:37;;;;;;;7.63;5.22;;;;;;;17.62;62.30;101694.25;5221781;28;20459;-72
2022/08/12 04:48:08;;;;;;;;;;;;;;;17.95;58.51;101697.75;5204748;28;20124;-72
2022/08/12 04:50:40;;;;;;;12.70;5.75;;;;;;;17.64;61.44;101692.41;5221560;28;20067;-72
2022/08/12 04:53:12;;;;;;;10.33;5.77;;;;;;;17.64;61.97;101697.69;5221700;28;20082;-72
2022/08/12 04:55:45;;;;;;;8.57;5.10;;;;;;;17.78;64.06;101695.53;5221661;28;20289;-72
2022/08/12 04:58:16;;;;;;;7.95;5.30;;;;;;;17.64;62.59;101695.91;5221492;28;20038;-73
2022/08/12 05:00:48;;;;;;;10.80;5.80;;;;;;;17.70;62.61;101688.75;5221692;28;20026;-72
2022/08/12 05:03:19;;;;;;;7.53;5.67;;;;;;;17.71;63.22;101698.38;5204036;28;20474;-72
2022/08/12 05:05:51;;;;;;;12.20;5.97;;;;;;;17.63;62.55;101691.56;5220956;28;20038;-72
2022/08/12 05:08:25;;;;;;;7.43;6.32;;;;;;;17.61;62.80;101689.88;5204043;28;20099;-72
2022/08/12 05:10:57;;;;;;;10.82;5.55;;;;;;;17.65;63.96;101683.63;5221518;28;20347;-72
2022/08/12 05:13:36;;;;;;;12.52;5.78;;;;;;;17.63;64.06;101686.28;5221122;28;20033;-72
2022/08/12 05:16:08;;;;;;;12.13;5.80;;;;;;;17.64;65.34;101681.88;5221338;28;20371;-72
2022/08/12 05:18:39;;;;;;;9.35;5.93;;;;;;;17.68;65.23;101688.81;5221129;28;20037;-72
2022/08/12 05:21:11;;;;;;;6.80;5.13;;;;;;;17.74;65.85;101691.28;5187355;28;20035;-72
2022/08/12 05:23:42;;;;;;;8.97;5.50;;;;;;;17.71;64.17;101694.00;5220771;28;20036;-72
2022/08/12 05:26:14;;;;;;;7.17;5.73;;;;;;;17.74;64.61;101687.75;5220942;28;20022;-72
2022/08/12 05:28:45;;;;;;;9.30;5.30;;;;;;;17.80;64.17;101703.41;5221575;28;20030;-72
2022/08/12 05:31:17;;;;;;;9.83;5.83;;;;;;;17.81;64.36;101699.88;5221008;28;20066;-71
2022/08/12 05:33:48;;;;;;;9.07;5.17;;;;;;;17.87;64.49;101699.69;5203372;28;20030;-71
2022/08/12 05:36:19;;;;;;;10.10;6.07;;;;;;;17.89;64.62;101699.66;5221084;28;20025;-72
2022/08/12 05:38:57;;;;;;;8.97;5.77;;;;;;;17.89;63.90;101707.56;5221533;28;20204;-72
2022/08/12 05:41:31;;;;;;;13.23;6.15;;;;;;;17.91;65.54;101703.13;5220709;28;20050;-73
2022/08/12 05:44:12;;;;;;;8.77;6.28;;;;;;;18.00;64.54;101716.03;5220679;28;20473;-72
2022/08/12 05:46:44;;;;;;;8.77;5.75;;;;;;;18.03;64.39;101716.84;5220500;28;20073;-73
2022/08/12 05:49:15;;;;;;;8.88;6.43;;;;;;;18.26;65.36;101712.66;5220894;28;20068;-72
2022/08/12 05:51:47;;;;;;;11.63;5.70;;;;;;;18.26;63.08;101710.00;5203049;28;20068;-73
2022/08/12 05:54:19;;;;;;;14.80;5.77;;;;;;;18.42;65.39;101710.41;5220314;28;20040;-73
2022/08/12 05:56:50;;;;;;;7.47;5.60;;;;;;;18.44;66.02;101718.28;5203003;28;20045;-73
2022/08/12 05:59:22;;;;;;;8.95;6.10;;;;;;;18.47;63.88;101711.13;5220370;28;20439;-72
2022/08/12 06:02:02;;;;;;;9.15;5.65;;;;;;;18.54;62.75;101719.72;5220271;28;20048;-73
2022/08/12 06:04:33;;;;;;;8.68;6.35;;;;;;;18.77;64.93;101721.63;5220953;28;20117;-73
2022/08/12 06:07:07;;;;;;;8.50;5.83;;;;;;;18.81;64.25;101725.91;5220602;28;20063;-72
2022/08/12 06:09:39;;;;;;;8.05;5.75;;;;;;;18.91;63.03;101716.78;5220576;28;20034;-73
2022/08/12 06:12:10;;;;;;;9.73;5.53;;;;;;;18.92;63.41;101722.97;5220450;28;20473;-73
2022/08/12 06:14:43;;;;;;;12.97;6.53;;;;;;;19.02;63.22;101721.72;5220529;28;20030;-73
2022/08/12 06:17:15;;;;;;;7.90;5.93;;;;;;;19.12;63.61;101719.63;5220844;28;20034;-73
2022/08/12 06:19:47;;;;;;;18.25;6.65;;;;;;;19.22;62.04;101731.63;5220368;28;20087;-74
2022/08/12 06:22:19;;;;;;;11.93;5.72;;;;;;;19.30;62.09;101721.66;5220208;28;20037;-70
2022/08/12 06:24:52;;;;;;;8.80;5.90;;;;;;;19.43;63.68;101726.50;5220205;28;20041;-72
2022/08/12 06:27:23;;;;;;;8.45;6.18;;;;;;;19.55;60.77;101718.16;5220182;28;20034;-72
2022/08/12 06:29:55;;;;;;;11.23;5.90;;;;;;;19.65;60.17;101719.53;5202749;28;20144;-72
2022/08/12 06:32:27;;;;;;;12.67;6.20;;;;;;;19.69;61.25;101720.31;5219949;28;20026;-71
2022/08/12 06:34:58;;;;;;;10.98;5.30;;;;;;;19.79;58.69;101718.22;5220007;28;20045;-71
2022/08/12 06:37:38;;;;;;;7.80;5.20;;;;;;;19.92;58.55;101711.56;5202603;28;20042;-72
2022/08/12 06:40:12;;;;;;;13.98;5.68;;;;;;;20.04;61.70;101723.47;5220057;28;20033;-74
2022/08/12 06:42:51;;;;;;;11.43;5.70;;;;;;;20.12;59.60;101717.88;5202531;28;20394;-72
2022/08/12 06:45:22;;;;;;;10.13;5.88;;;;;;;20.29;60.76;101725.19;5220459;28;20179;-72
2022/08/12 06:47:55;;;;;;;11.37;5.20;;;;;;;20.39;56.90;101719.44;5219840;28;20467;-73
2022/08/12 06:50:29;;;;;;;14.10;6.43;;;;;;;20.46;57.34;101717.41;5220119;28;20160;-73
2022/08/12 06:53:04;;;;;;;10.85;5.68;;;;;;;20.55;56.16;101714.41;5220801;28;20030;-73
2022/08/12 06:55:36;;;;;;;10.40;5.68;;;;;;;20.68;57.14;101706.03;5221854;28;20037;-74
2022/08/12 06:58:07;;;;;;;10.30;5.25;;;;;;;20.85;58.65;101703.53;5224093;28;20434;-72
2022/08/12 07:00:42;;;;;;;11.27;5.35;;;;;;;20.91;58.17;101708.59;5186070;28;20439;-72
2022/08/12 07:03:19;;;;;;;9.10;5.13;;;;;;;21.01;55.73;101709.06;5219944;28;20026;-73
2022/08/12 07:05:51;;;;;;;14.77;5.13;;;;;;;21.18;57.48;101710.13;5219956;28;20078;-73
2022/08/12 07:08:28;;;;;;;8.30;5.25;;;;;;;21.24;56.68;101705.44;5220135;28;20068;-73
2022/08/12 07:11:05;;;;;;;11.23;4.65;;;;;;;21.47;53.08;101703.56;5219707;28;20034;-72
2022/08/12 07:13:46;;;;;;;7.88;5.10;;;;;;;21.53;55.45;101710.44;5219834;28;20030;-72
2022/08/12 07:16:19;;;;;;;9.13;5.55;;;;;;;21.64;55.89;101708.19;5202190;28;20041;-73
2022/08/12 07:18:52;;;;;;;8.02;5.05;;;;;;;21.70;55.07;101714.97;5220017;28;20352;-73
2022/08/12 07:21:23;;;;;;;8.52;4.90;;;;;;;21.89;51.29;101712.38;5219762;28;20034;-73
2022/08/12 07:23:55;;;;;;;16.47;6.87;;;;;;;21.98;53.71;101719.91;5219693;28;20466;-72
2022/08/12 07:26:28;;;;;;;12.93;4.43;;;;;;;22.16;52.11;101716.38;5219943;28;20442;-73
2022/08/12 07:28:59;;;;;;;11.95;5.40;;;;;;;22.18;50.77;101716.31;5219602;28;20037;-73
2022/08/12 07:31:31;;;;;;;10.07;5.20;;;;;;;22.30;51.82;101725.53;5219770;28;20411;-73
2022/08/12 07:34:03;;;;;;;12.07;5.03;;;;;;;22.42;49.84;101716.97;5219846;28;20069;-75
2022/08/12 07:36:34;;;;;;;;;;;;;;;22.60;51.30;101723.19;5220054;28;20034;-71
2022/08/12 07:39:06;;;;;;;16.73;4.67;;;;;;;22.57;48.73;101726.88;5220173;28;19918;-71
2022/08/12 07:41:38;;;;;;;6.25;3.92;;;;;;;22.73;48.37;101732.31;5220326;28;20053;-72
2022/08/12 07:44:12;;;;;;;10.55;4.20;;;;;;;22.73;51.95;101727.00;5221065;28;20049;-73
2022/08/12 07:46:44;;;;;;;14.75;4.30;;;;;;;22.94;50.04;101725.06;5206573;28;20545;-72
2022/08/12 07:49:15;;;;;;;14.03;4.10;;;;;;;23.03;51.31;101728.22;5230416;28;20046;-73
2022/08/12 07:51:47;;;;;;;15.27;4.57;;;;;;;23.23;48.18;101729.88;5238329;28;20097;-73
2022/08/12 07:54:18;;;;;;;17.23;4.43;;;;;;;23.23;47.34;101720.13;5229110;28;20038;-73
2022/08/12 07:56:50;;;;;;;16.00;4.50;;;;;;;23.38;46.12;101723.78;5223788;28;20026;-73
2022/08/12 07:59:22;;;;;;;11.63;3.73;;;;;;;23.41;47.92;101733.38;5224185;28;20052;-72
2022/08/12 08:01:59;;;;;;;21.30;4.55;;;;;;;23.42;50.08;101743.09;5223281;28;20119;-72
2022/08/12 08:07:22;;;;;;;15.77;4.72;;;;;;;23.78;46.59;101737.66;5223013;28;20037;-72
2022/08/12 08:09:56;;;;;;;9.40;4.15;;;;;;;23.99;47.68;101732.16;5223303;28;20108;-73
2022/08/12 08:15:20;;;;;;;11.70;4.15;;;;;;;24.12;46.36;101740.34;5223287;28;20046;-73
2022/08/12 08:18:03;;;;;;;14.35;4.50;;;;;;;24.25;44.73;101738.69;5222817;28;20026;-72
2022/08/12 08:20:38;;;;;;;9.85;4.38;;;;;;;24.20;46.48;101746.09;5223547;28;20036;-72
2022/08/12 08:23:15;;;;;;;8.13;3.95;;;;;;;24.24;47.62;101738.78;5222819;28;20187;-73
2022/08/12 08:25:48;;;;;;;12.20;3.78;;;;;;;24.44;47.30;101745.66;5223086;28;20107;-72
2022/08/12 08:28:20;;;;;;;7.57;4.55;;;;;;;24.52;47.25;101741.63;5223051;28;20038;-73
2022/08/12 08:30:52;;;;;;;18.60;3.77;;;;;;;24.65;44.18;101740.94;5204822;28;20191;-72
2022/08/12 08:33:23;;;;;;;10.70;3.83;;;;;;;24.79;43.90;101734.81;5222750;28;20032;-74
2022/08/12 08:35:55;;;;;;;9.53;4.33;;;;;;;24.94;43.34;101739.28;5205077;28;20463;-73
2022/08/12 08:38:26;;;;;;;7.13;3.60;;;;;;;25.11;42.08;101736.47;5223115;28;20111;-73
2022/08/12 08:43:47;;;;;;;11.35;4.10;;;;;;;25.05;41.05;101736.84;5222984;28;20077;-72
2022/08/12 08:46:19;;;;;;;14.37;4.30;;;;;;;25.43;42.51;101733.72;5222562;28;20057;-72
2022/08/12 08:48:50;;;;;;;9.00;4.00;;;;;;;25.39;41.16;101736.66;5222825;28;20026;-72
2022/08/12 08:51:25;;;;;;;9.87;3.77;;;;;;;25.53;40.18;101736.66;5222457;28;20271;-72
2022/08/12 08:53:56;;;;;;;21.88;4.32;;;;;;;25.45;39.50;101741.63;5222823;28;20033;-72
2022/08/12 08:56:30;;;;;;;8.68;3.60;;;;;;;25.62;42.07;101740.59;5222521;28;20081;-73
2022/08/12 08:59:02;;;;;;;7.82;3.35;;;;;;;25.73;39.60;101730.13;5222744;28;20033;-73
2022/08/12 09:01:33;;;;;;;13.32;4.25;;;;;;;25.88;40.40;101732.78;5188507;28;20061;-73
2022/08/12 09:04:06;;;;;;;18.80;4.60;;;;;;;26.14;37.67;101740.03;5222167;28;20076;-72
2022/08/12 09:06:40;;;;;;;8.95;2.97;;;;;;;26.13;36.95;101741.00;5221895;28;20033;-73
2022/08/12 09:09:13;;;;;;;13.40;4.43;;;;;;;26.26;37.14;101734.88;5222064;28;20502;-73
2022/08/12 09:14:34;;;;;;;6.53;3.60;;;;;;;26.37;39.79;101732.34;5222132;28;20041;-72
2022/08/12 09:17:05;;;;;;;8.53;3.13;;;;;;;26.65;38.55;101734.13;5204672;28;20034;-72
2022/08/12 09:19:37;;;;;;;10.73;3.70;;;;;;;26.83;35.46;101733.88;5221856;28;20261;-73
2022/08/12 09:22:08;;;;;;;12.77;4.40;;;;;;;27.05;35.53;101727.94;5221991;28;20034;-74
2022/08/12 09:24:40;;;;;;;8.68;2.90;;;;;;;27.29;34.10;101723.59;5221908;28;20114;-72
2022/08/12 09:27:15;;;;;;;12.43;3.43;;;;;;;27.13;35.82;101722.94;5221515;28;20034;-72
2022/08/12 09:29:46;;;;;;;10.63;3.60;;;;;;;27.20;35.96;101734.91;5222074;28;20033;-71
2022/08/12 09:32:17;;;;;;;11.00;3.28;;;;;;;27.32;35.45;101730.56;5223902;28;20037;-72
2022/08/12 09:34:49;;;;;;;4.85;3.10;;;;;;;27.61;33.02;101719.66;5226171;28;20065;-71
2022/08/12 09:37:24;;;;;;;6.93;3.33;;;;;;;27.54;35.23;101724.56;5222144;28;20061;-72
2022/08/12 09:39:55;;;;;;;6.35;3.33;;;;;;;27.64;34.84;101722.09;5221570;28;20277;-71
2022/08/12 09:45:21;;;;;;;7.28;3.60;;;;;;;28.62;33.38;101716.03;5221721;28;20470;-72
2022/08/12 09:47:53;;;;;;;12.40;3.83;;;;;;;28.92;32.78;101719.06;5205232;28;20370;-71
2022/08/12 09:50:25;;;;;;;;;;;;;;;29.45;33.90;101717.78;5204212;28;20049;-72
2022/08/12 09:53:09;;;;;;;11.00;4.00;;;;;;;29.91;34.42;101714.13;5221516;28;19921;-73
2022/08/12 09:55:50;;;;;;;9.35;3.38;;;;;;;29.94;33.29;101710.34;5221252;28;20617;-71
2022/08/12 09:58:28;;;;;;;8.40;3.17;;;;;;;30.28;29.39;101699.53;5221270;28;20030;-72
2022/08/12 10:01:03;;;;;;;9.13;2.97;;;;;;;30.51;34.18;101703.03;5221318;28;20463;-71
2022/08/12 10:03:36;;;;;;;7.07;3.30;;;;;;;30.88;29.83;101694.53;5221810;28;20030;-72
2022/08/12 10:06:09;;;;;;;8.80;2.80;;;;;;;31.12;28.23;101697.00;5221572;28;20026;-72
2022/08/12 10:08:40;;;;;;;6.68;3.20;;;;;;;31.32;29.35;101692.59;5220096;28;20048;-71
2022/08/12 10:14:02;;;;;;;6.18;3.30;;;;;;;31.99;26.71;101691.19;5221270;28;20038;-72
2022/08/12 10:16:42;;;;;;;4.90;2.65;;;;;;;31.85;26.63;101688.00;5220938;28;20030;-72
2022/08/12 10:19:15;;;;;;;7.85;3.20;;;;;;;31.74;27.55;101691.69;5220698;28;20033;-71
2022/08/12 10:21:46;;;;;;;10.15;2.92;;;;;;;31.63;26.04;101688.09;5220424;28;20030;-71
2022/08/12 10:24:20;;;;;;;6.13;2.40;;;;;;;31.54;28.06;101683.53;5220558;28;20042;-71
2022/08/12 10:29:43;;;;;;;7.18;2.60;;;;;;;31.66;29.76;101672.66;5220946;28;20125;-71
2022/08/12 10:32:22;;;;;;;7.63;3.70;;;;;;;31.96;28.18;101674.41;5220315;28;20038;-72
2022/08/12 10:34:54;;;;;;;9.55;3.08;;;;;;;31.88;29.45;101671.56;5220977;28;20079;-71
2022/08/12 10:37:25;;;;;;;10.65;3.60;;;;;;;32.07;27.16;101670.75;5220456;28;20030;-71
2022/08/12 10:39:56;;;;;;;5.68;3.30;;;;;;;32.36;26.10;101673.53;5202901;28;20080;-72
2022/08/12 10:45:30;;;;;;;7.53;3.08;;;;;;;32.38;24.55;101662.59;5220739;28;20487;-72
2022/08/12 10:48:04;;;;;;;10.32;3.17;;;;;;;32.68;25.34;101659.81;5220263;28;20034;-72
2022/08/12 10:50:36;;;;;;;7.57;3.10;;;;;;;32.88;25.47;101651.66;5187633;28;20475;-71
2022/08/12 10:53:09;;;;;;;8.45;3.03;;;;;;;33.28;23.73;101658.69;5221165;28;20061;-72
2022/08/12 10:55:41;;;;;;;6.35;3.03;;;;;;;33.68;24.20;101645.84;5220065;28;20104;-72
2022/08/12 10:58:13;;;;;;;5.35;3.28;;;;;;;34.59;23.91;101647.69;5220340;28;20034;-71
2022/08/12 11:00:45;;;;;;;5.25;3.20;;;;;;;34.79;21.01;101637.53;5220500;28;20088;-72
2022/08/12 11:03:17;;;;;;;5.15;2.78;;;;;;;35.22;21.84;101644.72;5220399;28;20057;-71
2022/08/12 11:05:49;;;;;;;7.15;3.25;;;;;;;35.48;23.00;101643.88;5220250;28;20042;-72
2022/08/12 11:08:20;;;;;;;6.18;4.00;;;;;;;35.50;21.97;101639.16;5220394;28;20091;-71
2022/08/12 11:10:52;;;;;;;8.75;3.15;;;;;;;35.88;20.82;101631.47;5220614;28;20041;-72
2022/08/12 11:13:24;;;;;;;6.88;3.17;;;;;;;36.23;20.68;101634.94;5220131;28;20026;-72
2022/08/12 11:15:55;;;;;;;5.43;3.47;;;;;;;36.26;19.16;101640.06;5220101;28;20045;-71
2022/08/12 11:18:27;;;;;;;7.55;3.42;;;;;;;36.25;19.88;101619.34;5202585;28;20030;-71
2022/08/12 11:20:59;;;;;;;6.47;3.40;;;;;;;36.24;23.47;101614.09;5205264;28;20037;-71
2022/08/12 11:23:31;;;;;;;5.82;2.92;;;;;;;36.41;22.94;101623.94;5206374;28;20057;-72
2022/08/12 11:26:04;;;;;;;6.15;3.58;;;;;;;36.67;22.44;101633.78;5224260;28;20045;-71
2022/08/12 11:28:35;;;;;;;9.23;3.38;;;;;;;36.42;20.74;101622.94;5207012;28;20453;-71
2022/08/12 11:31:08;;;;;;;8.02;3.35;;;;;;;36.71;20.95;101610.69;5224326;28;20117;-71
2022/08/12 11:33:41;;;;;;;8.70;3.53;;;;;;;36.84;22.42;101610.19;5224086;28;20050;-72
2022/08/12 11:36:13;;;;;;;10.77;3.75;;;;;;;36.85;22.16;101617.28;5223789;28;20459;-71
2022/08/12 11:38:44;;;;;;;4.97;2.90;;;;;;;36.99;22.09;101613.03;5205982;28;20041;-72
2022/08/12 11:41:16;;;;;;;10.43;3.78;;;;;;;37.26;20.15;101600.03;5223606;28;20351;-72
2022/08/12 11:43:47;;;;;;;11.40;3.40;;;;;;;37.13;21.38;101606.88;5223643;28;20033;-71
2022/08/12 11:46:19;;;;;;;5.65;3.60;;;;;;;36.88;18.41;101602.53;5223456;28;20438;-73
2022/08/12 11:48:50;;;;;;;7.95;3.38;;;;;;;37.13;18.70;101609.59;5223503;28;20473;-72
2022/08/12 11:51:22;;;;;;;7.32;3.40;;;;;;;37.50;20.96;101597.22;5223068;28;20034;-72
2022/08/12 11:53:53;;;;;;;6.57;3.47;;;;;;;37.55;19.29;101588.53;5223609;28;20486;-71
2022/08/12 11:56:25;;;;;;;10.98;3.72;;;;;;;38.04;21.09;101596.38;5222960;28;20413;-71
2022/08/12 11:58:57;;;;;;;10.63;3.70;;;;;;;38.52;18.87;101592.63;5223247;28;20030;-72
2022/08/12 12:01:28;;;;;;;11.13;3.35;;;;;;;38.66;17.54;101595.38;5223719;28;20033;-71
2022/08/12 12:04:00;;;;;;;8.40;3.72;;;;;;;38.80;18.21;101588.28;5223506;28;20477;-72
2022/08/12 12:06:31;;;;;;;7.88;4.05;;;;;;;39.40;18.11;101580.06;5225675;28;20036;-71
2022/08/12 12:09:03;;;;;;;10.10;3.60;;;;;;;39.66;18.82;101585.00;5206152;28;20030;-72
2022/08/12 12:11:34;;;;;;;8.68;3.53;;;;;;;39.90;17.09;101574.75;5222975;28;20029;-72
2022/08/12 12:14:05;;;;;;;11.70;3.58;;;;;;;40.08;18.61;101586.06;5223632;28;20045;-72
2022/08/12 12:16:37;;;;;;;7.15;4.13;;;;;;;40.29;15.61;101581.63;5222993;28;20109;-72
2022/08/12 12:19:08;;;;;;;8.38;3.58;;;;;;;40.48;17.50;101574.66;5222821;28;20026;-72
2022/08/12 12:21:40;;;;;;;5.07;3.30;;;;;;;40.97;15.43;101568.25;5223082;28;20493;-73
2022/08/12 12:24:11;;;;;;;7.10;3.70;;;;;;;40.96;17.03;101576.66;5222984;28;20030;-72
2022/08/12 12:26:42;;;;;;;8.48;3.60;;;;;;;41.21;15.93;101571.50;5222717;28;20069;-72
2022/08/12 12:29:14;;;;;;;6.68;3.63;;;;;;;41.15;16.27;101567.69;5223089;28;20533;-72
2022/08/12 12:31:45;;;;;;;8.70;3.88;;;;;;;41.34;15.14;101559.81;5221874;28;20077;-73
2022/08/12 12:34:16;;;;;;;7.07;3.70;;;;;;;41.44;17.19;101557.50;5222430;28;20037;-72
2022/08/12 12:36:48;;;;;;;7.45;4.00;;;;;;;41.76;14.41;101562.47;5222458;28;20038;-74
2022/08/12 12:39:20;;;;;;;8.82;4.00;;;;;;;42.09;14.43;101548.78;5222566;28;20528;-73
2022/08/12 12:41:51;;;;;;;7.10;4.05;;;;;;;42.51;16.51;101556.75;5222318;28;20050;-71
2022/08/12 12:44:23;;;;;;;5.72;3.53;;;;;;;42.52;17.51;101558.47;5222038;28;20498;-72
2022/08/12 12:46:54;;;;;;;6.38;4.32;;;;;;;42.92;13.50;101555.63;5205039;28;20091;-73
2022/08/12 12:49:25;;;;;;;8.23;4.20;;;;;;;42.87;13.85;101548.06;5188823;28;20463;-73
2022/08/12 12:51:57;;;;;;;7.53;4.38;;;;;;;43.11;16.73;101541.03;5222669;28;20053;-73
2022/08/12 12:54:28;;;;;;;8.52;4.05;;;;;;;43.32;13.55;101544.50;5222532;28;20489;-73
2022/08/12 12:56:59;;;;;;;7.30;4.30;;;;;;;43.31;13.54;101531.84;5222344;28;20068;-71
2022/08/12 12:59:31;;;;;;;9.93;4.00;;;;;;;43.62;13.26;101530.19;5221740;28;20150;-72
2022/08/12 13:02:05;;;;;;;6.70;4.60;;;;;;;43.57;15.10;101530.88;5221887;28;20036;-72
2022/08/12 13:04:37;;;;;;;7.50;4.25;;;;;;;43.24;13.42;101518.16;5222280;28;20435;-72
2022/08/12 13:07:08;;;;;;;9.60;4.13;;;;;;;43.31;17.54;101520.88;5221673;28;20045;-71
2022/08/12 13:09:40;;;;;;;8.90;5.53;;;;;;;43.72;15.00;101525.06;5221953;28;20077;-71
2022/08/12 13:12:11;;;;;;;6.75;4.07;;;;;;;43.70;14.20;101514.31;5222475;28;20036;-75
2022/08/12 13:14:42;;;;;;;5.18;4.10;;;;;;;44.40;14.08;101524.28;5221855;28;20065;-72
2022/08/12 13:17:17;;;;;;;20.58;5.05;;;;;;;44.35;13.43;101526.03;5221572;28;20030;-71
2022/08/12 13:19:48;;;;;;;10.23;4.93;;;;;;;43.93;13.24;101518.38;5221922;28;20033;-72
2022/08/12 13:22:19;;;;;;;7.10;4.95;;;;;;;43.94;13.19;101511.81;5222284;28;20045;-73
2022/08/12 13:24:53;;;;;;;7.75;4.47;;;;;;;44.61;13.78;101517.50;5222867;28;20591;-72
2022/08/12 13:27:28;;;;;;;6.25;4.40;;;;;;;43.80;13.29;101508.34;5223751;28;20069;-72
2022/08/12 13:30:00;;;;;;;6.65;4.82;;;;;;;44.40;14.55;101512.44;5206496;28;20041;-73
2022/08/12 13:32:31;;;;;;;12.73;5.18;;;;;;;44.53;12.57;101512.28;5222841;28;20062;-72
2022/08/12 13:35:04;;;;;;;8.88;4.60;;;;;;;44.66;13.64;101505.81;5221730;28;20064;-72
2022/08/12 13:37:35;;;;;;;8.93;5.00;;;;;;;44.99;12.95;101510.09;5221674;28;20030;-73
2022/08/12 13:40:10;;;;;;;7.82;4.47;;;;;;;45.22;13.54;101509.34;5204691;28;20084;-73
2022/08/12 13:42:43;;;;;;;9.00;4.45;;;;;;;45.42;11.66;101489.81;5203112;28;20061;-72